Camp Smith, Hawaii
Current Conditions -  °F | °C
As of 1:53 AM on Friday 28 Nov 2014 (Local Time) from PHNL Reporting Station
Scattered Clouds Scattered Clouds  
Wind Chill: 75°   Ceiling: Unl
Heat Index: 75°   Visibility: 10mi
Dew Point: 57°   Wind: 14mph
Humidity: 53%   Direction: 60°ENE
Pressure: 30.04"   Gusts: 21mph
Location:  21.3902°N, 157.908°W
Report Text: PHNL 281153Z 06012G18KT 10SM FEW030 SCT050 24/14 A3004 RMK AO2 SLP171 T02390139 10244 20233 55010
Loading
Personal Weather Stations






























Interactive Weather Map New forecast layout! Learn more

10-Day Weather Forecast

Advertisements
Track Severe Weather on mobile